createdAt,value
2023-04-09T00:01:09.566Z,3.93
2023-04-09T00:04:12.288Z,3.98
2023-04-09T00:07:14.548Z,4.01
2023-04-09T00:10:17.393Z,3.96
2023-04-09T00:13:28.273Z,3.95
2023-04-09T00:16:38.531Z,4.05
2023-04-09T00:19:40.927Z,3.94
2023-04-09T00:22:43.561Z,3.91
2023-04-09T00:25:45.987Z,3.95
2023-04-09T00:28:48.637Z,4.01
2023-04-09T00:31:51.233Z,3.95
2023-04-09T00:34:53.891Z,3.99
2023-04-09T00:37:56.227Z,3.99
2023-04-09T00:40:58.896Z,3.99
2023-04-09T00:44:01.311Z,4.06
2023-04-09T00:47:04.927Z,4.08
2023-04-09T00:50:07.563Z,4.08
2023-04-09T00:53:10.789Z,4.08
2023-04-09T00:56:13.569Z,4.05
2023-04-09T00:59:16.589Z,4.06
2023-04-09T01:02:19.230Z,4.07
2023-04-09T01:05:22.106Z,4.21
2023-04-09T01:08:31.383Z,4.13
2023-04-09T01:11:51.755Z,4.20
2023-04-09T01:14:57.539Z,4.20
2023-04-09T01:18:05.434Z,4.21
2023-04-09T01:21:13.222Z,4.14
2023-04-09T01:24:21.252Z,4.22
2023-04-09T01:27:24.625Z,4.28
2023-04-09T01:30:29.444Z,4.39
2023-04-09T01:33:32.820Z,4.31
2023-04-09T01:36:35.937Z,4.32
2023-04-09T01:39:39.103Z,4.27
2023-04-09T01:42:42.646Z,4.29
2023-04-09T01:45:47.458Z,4.30
2023-04-09T01:48:56.880Z,4.31
2023-04-09T01:51:59.635Z,4.19
2023-04-09T01:55:02.160Z,4.12
2023-04-09T01:58:04.701Z,4.10
2023-04-09T02:01:07.530Z,4.05
2023-04-09T02:04:14.514Z,4.02
2023-04-09T02:07:35.407Z,4.17
2023-04-09T02:10:39.595Z,4.08
2023-04-09T02:13:42.984Z,3.92
2023-04-09T02:16:46.555Z,3.89
2023-04-09T02:19:48.981Z,3.81
2023-04-09T02:22:51.601Z,3.79
2023-04-09T02:25:54.054Z,3.69
2023-04-09T02:28:56.825Z,3.59
2023-04-09T02:31:59.214Z,3.53
2023-04-09T02:35:01.812Z,3.61
2023-04-09T02:38:04.597Z,3.45
2023-04-09T02:41:07.367Z,3.49
2023-04-09T02:44:10.038Z,3.45
2023-04-09T02:47:12.623Z,3.31
2023-04-09T02:50:15.370Z,3.28
2023-04-09T02:53:21.606Z,3.31
2023-04-09T02:56:24.003Z,3.39
2023-04-09T02:59:26.843Z,3.58
2023-04-09T03:02:29.337Z,3.69
2023-04-09T03:05:32.063Z,3.63
2023-04-09T03:08:34.978Z,3.63
2023-04-09T03:11:37.654Z,3.65
2023-04-09T03:14:39.931Z,3.70
2023-04-09T03:17:43.028Z,3.70
2023-04-09T03:20:45.677Z,3.75
2023-04-09T03:23:48.575Z,3.75
2023-04-09T03:26:51.006Z,3.93
2023-04-09T03:29:55.887Z,3.92
2023-04-09T03:32:59.582Z,3.89
2023-04-09T03:36:03.267Z,3.96
2023-04-09T03:39:05.993Z,3.89
2023-04-09T03:42:09.903Z,3.91
2023-04-09T03:45:15.532Z,3.95
2023-04-09T03:48:18.434Z,4.01
2023-04-09T03:51:21.746Z,3.97
2023-04-09T03:54:25.044Z,3.95
2023-04-09T03:57:29.140Z,3.96
2023-04-09T04:00:32.294Z,4.03
2023-04-09T04:03:40.033Z,4.04
2023-04-09T04:06:43.478Z,4.04
2023-04-09T04:09:48.063Z,4.04
2023-04-09T04:12:50.794Z,4.10
2023-04-09T04:15:54.703Z,4.15
2023-04-09T04:18:57.926Z,4.11
2023-04-09T04:22:01.284Z,4.12
2023-04-09T04:25:05.418Z,4.19
2023-04-09T04:28:12.735Z,4.26
2023-04-09T04:31:15.674Z,4.26
2023-04-09T04:34:19.437Z,4.29
2023-04-09T04:37:22.632Z,4.32
2023-04-09T04:40:28.872Z,4.35
2023-04-09T04:43:32.436Z,4.38
2023-04-09T04:46:35.517Z,4.38
2023-04-09T04:49:37.982Z,4.42
2023-04-09T04:52:41.521Z,4.51
2023-04-09T04:55:44.457Z,4.55
2023-04-09T04:58:48.398Z,4.45
2023-04-09T05:01:51.836Z,4.53
2023-04-09T05:04:54.784Z,4.51
2023-04-09T05:07:59.285Z,4.57
2023-04-09T05:11:02.361Z,4.57
2023-04-09T05:14:06.694Z,4.61
2023-04-09T05:17:09.325Z,4.77
2023-04-09T05:20:14.162Z,4.83
2023-04-09T05:23:18.639Z,4.96
2023-04-09T05:26:21.833Z,4.96
2023-04-09T05:29:24.945Z,5.02
2023-04-09T05:32:27.563Z,5.09
2023-04-09T05:35:31.050Z,5.20
2023-04-09T05:38:34.289Z,5.24
2023-04-09T05:41:38.711Z,5.21
2023-04-09T05:44:43.405Z,5.34
2023-04-09T05:47:46.582Z,5.36
2023-04-09T05:50:54.452Z,5.40
2023-04-09T05:53:59.412Z,5.52
2023-04-09T05:57:05.930Z,5.42
2023-04-09T06:00:10.592Z,5.49
2023-04-09T06:03:19.196Z,5.56
2023-04-09T06:06:22.411Z,5.65
2023-04-09T06:09:24.820Z,5.69
2023-04-09T06:12:27.422Z,5.73
2023-04-09T06:15:29.748Z,5.74
2023-04-09T06:18:32.758Z,5.91
2023-04-09T06:21:35.385Z,5.95
2023-04-09T06:24:38.098Z,5.99
2023-04-09T06:27:40.351Z,6.15
2023-04-09T06:30:43.096Z,6.36
2023-04-09T06:33:45.364Z,6.25
2023-04-09T06:36:48.258Z,6.33
2023-04-09T06:40:00.401Z,6.33
2023-04-09T06:43:04.187Z,6.40
2023-04-09T06:46:11.448Z,6.54
2023-04-09T06:49:14.273Z,6.55
2023-04-09T06:52:16.606Z,6.74
2023-04-09T06:55:19.355Z,6.67
2023-04-09T06:58:21.837Z,6.54
2023-04-09T07:01:25.680Z,6.66
2023-04-09T07:04:28.251Z,6.78
2023-04-09T07:07:31.672Z,6.75
2023-04-09T07:10:34.589Z,6.74
2023-04-09T07:13:37.298Z,6.75
2023-04-09T07:16:39.634Z,6.93
2023-04-09T07:19:42.221Z,6.98
2023-04-09T07:22:44.635Z,7.09
2023-04-09T07:25:48.365Z,7.19
2023-04-09T07:28:50.715Z,7.33
2023-04-09T07:31:53.509Z,7.35
2023-04-09T07:34:57.306Z,7.47
2023-04-09T07:38:00.005Z,7.67
2023-04-09T07:41:02.545Z,7.69
2023-04-09T07:44:06.508Z,8.02
2023-04-09T07:47:09.150Z,8.09
2023-04-09T07:50:12.362Z,8.27
2023-04-09T07:53:15.136Z,8.51
2023-04-09T07:56:17.966Z,8.67
2023-04-09T07:59:20.827Z,9.03
2023-04-09T08:02:24.243Z,9.34
2023-04-09T08:05:28.367Z,9.53
2023-04-09T08:08:31.008Z,9.90
2023-04-09T08:11:33.605Z,9.98
2023-04-09T08:14:37.793Z,10.36
2023-04-09T08:17:40.501Z,10.39
2023-04-09T08:20:45.485Z,10.54
2023-04-09T08:23:48.359Z,10.29
2023-04-09T08:26:51.252Z,10.18
2023-04-09T08:29:54.000Z,10.50
2023-04-09T08:32:56.669Z,10.10
2023-04-09T08:36:00.313Z,10.01
2023-04-09T08:39:04.497Z,10.46
2023-04-09T08:42:08.239Z,10.64
2023-04-09T08:45:11.724Z,10.17
2023-04-09T08:48:14.676Z,10.61
2023-04-09T08:51:18.010Z,10.74
2023-04-09T08:54:20.841Z,10.00
2023-04-09T08:57:23.192Z,10.35
2023-04-09T09:00:26.213Z,10.68
2023-04-09T09:03:28.901Z,10.68
2023-04-09T09:06:33.348Z,10.33
2023-04-09T09:09:49.969Z,10.91
2023-04-09T09:12:52.681Z,11.16
2023-04-09T09:16:11.519Z,10.81
2023-04-09T09:19:26.525Z,11.25
2023-04-09T09:22:29.114Z,10.89
2023-04-09T09:25:37.722Z,10.38
2023-04-09T09:28:40.411Z,10.76
2023-04-09T09:31:51.665Z,10.76
2023-04-09T09:34:59.759Z,10.94
2023-04-09T09:38:04.190Z,11.17
2023-04-09T09:41:16.515Z,11.30
2023-04-09T09:44:32.533Z,10.90
2023-04-09T09:47:34.896Z,11.18
2023-04-09T09:50:38.476Z,10.61
2023-04-09T09:53:43.396Z,10.84
2023-04-09T09:56:46.694Z,10.92
2023-04-09T09:59:59.272Z,10.75
2023-04-09T10:03:08.556Z,10.58
2023-04-09T10:06:11.630Z,10.11
2023-04-09T10:09:14.046Z,10.15
2023-04-09T10:12:17.925Z,10.16
2023-04-09T10:15:21.550Z,9.79
2023-04-09T10:18:24.473Z,9.95
2023-04-09T10:21:38.558Z,9.83
2023-04-09T10:24:41.630Z,10.03
2023-04-09T10:27:49.205Z,9.94
2023-04-09T10:30:53.503Z,10.15
2023-04-09T10:34:03.924Z,10.07
2023-04-09T10:37:10.472Z,10.38
2023-04-09T10:40:18.974Z,10.51
2023-04-09T10:43:22.272Z,10.47
2023-04-09T10:46:36.955Z,10.65
2023-04-09T10:49:40.760Z,10.62
2023-04-09T10:52:44.401Z,11.18
2023-04-09T10:55:51.143Z,11.78
2023-04-09T10:58:54.249Z,12.08
2023-04-09T11:01:57.257Z,12.10
2023-04-09T11:04:59.705Z,11.72
2023-04-09T11:08:12.786Z,11.52
2023-04-09T11:11:16.583Z,11.62
2023-04-09T11:14:19.816Z,11.44
2023-04-09T11:17:22.222Z,11.38
2023-04-09T11:20:26.012Z,10.98
2023-04-09T11:23:28.699Z,10.75
2023-04-09T11:26:37.460Z,10.53
2023-04-09T11:29:40.558Z,10.27
2023-04-09T11:32:43.480Z,10.29
2023-04-09T11:35:46.029Z,10.13
2023-04-09T11:38:50.190Z,10.53
2023-04-09T11:41:52.837Z,10.86
2023-04-09T11:44:55.978Z,10.89
2023-04-09T11:47:58.583Z,11.34
2023-04-09T11:51:01.960Z,11.17
2023-04-09T11:54:07.926Z,11.60
2023-04-09T11:57:10.849Z,12.02
2023-04-09T12:00:14.553Z,12.26
2023-04-09T12:03:17.335Z,12.33
2023-04-09T12:06:24.781Z,12.53
2023-04-09T12:09:27.632Z,12.47
2023-04-09T12:12:30.728Z,12.48
2023-04-09T12:15:35.144Z,12.81
2023-04-09T12:18:38.509Z,12.71
2023-04-09T12:21:50.358Z,12.71
2023-04-09T12:24:52.723Z,12.86
2023-04-09T12:27:56.592Z,12.68
2023-04-09T12:30:59.566Z,12.87
2023-04-09T12:34:02.338Z,12.57
2023-04-09T12:37:04.939Z,12.60
2023-04-09T12:40:07.994Z,12.47
2023-04-09T12:43:10.673Z,12.52
2023-04-09T12:46:13.937Z,12.54
2023-04-09T12:49:16.419Z,12.55
2023-04-09T12:52:21.805Z,12.41
2023-04-09T12:55:24.220Z,12.56
2023-04-09T12:58:27.392Z,12.65
2023-04-09T13:01:29.795Z,12.55
2023-04-09T13:04:32.779Z,12.77
2023-04-09T13:07:35.293Z,12.37
2023-04-09T13:10:38.106Z,12.15
2023-04-09T13:13:42.586Z,12.05
2023-04-09T13:16:45.476Z,11.68
2023-04-09T13:19:48.122Z,11.74
2023-04-09T13:22:51.048Z,11.68
2023-04-09T13:25:53.804Z,11.81
2023-04-09T13:28:56.472Z,12.02
2023-04-09T13:31:58.860Z,11.95
2023-04-09T13:35:01.583Z,12.00
2023-04-09T13:38:03.993Z,12.03
2023-04-09T13:41:07.130Z,12.12
2023-04-09T13:44:09.562Z,12.26
2023-04-09T13:47:13.179Z,12.28
2023-04-09T13:50:15.716Z,12.42
2023-04-09T13:53:20.409Z,12.44
2023-04-09T13:56:23.223Z,12.75
2023-04-09T13:59:25.840Z,13.16
2023-04-09T14:02:29.398Z,13.19
2023-04-09T14:05:32.825Z,13.26
2023-04-09T14:08:35.937Z,13.16
2023-04-09T14:11:38.504Z,12.87
2023-04-09T14:14:41.273Z,13.23
2023-04-09T14:17:48.350Z,13.61
2023-04-09T14:20:51.151Z,13.90
2023-04-09T14:23:54.018Z,13.90
2023-04-09T14:26:56.829Z,13.48
2023-04-09T14:29:59.425Z,13.42
2023-04-09T14:33:01.888Z,13.20
2023-04-09T14:36:04.790Z,13.24
2023-04-09T14:39:07.391Z,13.32
2023-04-09T14:42:10.029Z,13.39
2023-04-09T14:45:12.449Z,13.14
2023-04-09T14:48:15.329Z,13.50
2023-04-09T14:51:17.745Z,13.45
2023-04-09T14:54:20.765Z,13.76
2023-04-09T14:57:23.583Z,13.04
2023-04-09T15:00:26.734Z,12.71
2023-04-09T15:03:29.486Z,12.29
2023-04-09T15:06:32.335Z,12.08
2023-04-09T15:09:34.640Z,12.20
2023-04-09T15:12:37.600Z,11.86
2023-04-09T15:15:44.915Z,11.52
2023-04-09T15:18:49.446Z,11.38
2023-04-09T15:21:51.878Z,11.23
2023-04-09T15:24:54.867Z,11.02
2023-04-09T15:27:57.393Z,10.94
2023-04-09T15:31:00.399Z,10.90
2023-04-09T15:34:02.928Z,10.85
2023-04-09T15:37:05.560Z,10.62
2023-04-09T15:40:08.400Z,10.61
2023-04-09T15:43:11.353Z,10.60
2023-04-09T15:46:15.520Z,10.48
2023-04-09T15:49:19.561Z,10.49
2023-04-09T15:52:22.315Z,10.45
2023-04-09T15:55:26.651Z,10.36
2023-04-09T15:58:29.083Z,10.44
2023-04-09T16:01:32.097Z,10.32
2023-04-09T16:04:34.962Z,10.23
2023-04-09T16:07:37.231Z,10.22
2023-04-09T16:10:40.515Z,10.27
2023-04-09T16:13:43.257Z,10.16
2023-04-09T16:16:49.989Z,10.12
2023-04-09T16:19:52.493Z,10.26
2023-04-09T16:22:55.330Z,10.28
2023-04-09T16:25:57.634Z,10.17
2023-04-09T16:29:04.100Z,10.06
2023-04-09T16:32:06.600Z,10.06
2023-04-09T16:35:09.281Z,9.98
2023-04-09T16:38:12.842Z,10.01
2023-04-09T16:41:15.768Z,9.96
2023-04-09T16:44:18.095Z,9.97
2023-04-09T16:47:20.960Z,9.82
2023-04-09T16:50:24.775Z,9.72
2023-04-09T16:53:27.857Z,9.69
2023-04-09T16:56:30.208Z,9.69
2023-04-09T16:59:32.880Z,9.58
2023-04-09T17:02:35.639Z,9.67
2023-04-09T17:05:38.279Z,9.52
2023-04-09T17:08:40.709Z,9.54
2023-04-09T17:11:44.608Z,9.48
2023-04-09T17:14:46.909Z,9.42
2023-04-09T17:17:52.457Z,9.31
2023-04-09T17:20:55.036Z,9.23
2023-04-09T17:23:58.166Z,9.25
2023-04-09T17:27:00.776Z,9.22
2023-04-09T17:30:04.365Z,9.22
2023-04-09T17:33:07.120Z,9.15
2023-04-09T17:36:09.758Z,9.11
2023-04-09T17:39:12.651Z,9.16
2023-04-09T17:42:15.272Z,9.09
2023-04-09T17:45:17.708Z,9.10
2023-04-09T17:48:20.570Z,8.91
2023-04-09T17:51:22.808Z,8.81
2023-04-09T17:54:25.834Z,8.94
2023-04-09T17:57:28.193Z,8.93
2023-04-09T18:00:31.705Z,8.78
2023-04-09T18:03:34.556Z,8.78
2023-04-09T18:06:37.018Z,8.66
2023-04-09T18:09:40.582Z,8.43
2023-04-09T18:12:42.946Z,8.24
2023-04-09T18:15:45.500Z,8.15
2023-04-09T18:18:47.830Z,8.06
2023-04-09T18:21:51.010Z,8.04
2023-04-09T18:24:53.394Z,7.83
2023-04-09T18:27:56.286Z,7.82
2023-04-09T18:30:58.856Z,7.59
2023-04-09T18:34:01.739Z,7.50
2023-04-09T18:37:04.232Z,7.48
2023-04-09T18:40:07.758Z,7.42
2023-04-09T18:43:11.414Z,7.40
2023-04-09T18:46:14.071Z,7.38
2023-04-09T18:49:16.578Z,7.32
2023-04-09T18:52:19.503Z,7.37
2023-04-09T18:55:21.885Z,7.41
2023-04-09T18:58:25.163Z,7.17
2023-04-09T19:01:28.287Z,7.07
2023-04-09T19:04:36.190Z,6.93
2023-04-09T19:07:39.505Z,6.83
2023-04-09T19:10:42.394Z,6.92
2023-04-09T19:13:44.730Z,6.80
2023-04-09T19:16:47.918Z,6.78
2023-04-09T19:19:50.412Z,6.74
2023-04-09T19:22:54.531Z,6.69
2023-04-09T19:25:57.441Z,6.65
2023-04-09T19:29:00.120Z,6.58
2023-04-09T19:32:03.088Z,6.41
2023-04-09T19:35:06.969Z,6.33
2023-04-09T19:38:09.433Z,6.20
2023-04-09T19:41:14.400Z,6.14
2023-04-09T19:44:16.861Z,6.09
2023-04-09T19:47:19.703Z,5.98
2023-04-09T19:50:22.274Z,5.85
2023-04-09T19:53:24.914Z,5.75
2023-04-09T19:56:27.410Z,5.65
2023-04-09T19:59:31.323Z,5.56
2023-04-09T20:02:33.754Z,5.56
2023-04-09T20:05:36.517Z,5.62
2023-04-09T20:08:39.021Z,5.62
2023-04-09T20:11:42.183Z,5.50
2023-04-09T20:14:45.872Z,5.71
2023-04-09T20:17:48.999Z,5.76
2023-04-09T20:20:51.946Z,5.74
2023-04-09T20:23:54.669Z,5.88
2023-04-09T20:26:57.014Z,5.85
2023-04-09T20:29:59.796Z,5.78
2023-04-09T20:33:02.722Z,5.58
2023-04-09T20:36:13.353Z,5.75
2023-04-09T20:39:15.886Z,5.65
2023-04-09T20:42:18.904Z,5.67
2023-04-09T20:45:21.235Z,5.65
2023-04-09T20:48:23.981Z,5.50
2023-04-09T20:51:26.334Z,5.49
2023-04-09T20:54:29.465Z,5.42
2023-04-09T20:57:31.808Z,5.45
2023-04-09T21:00:36.321Z,5.33
2023-04-09T21:03:40.061Z,5.19
2023-04-09T21:06:42.964Z,5.16
2023-04-09T21:09:45.420Z,5.22
2023-04-09T21:12:48.472Z,5.12
2023-04-09T21:15:50.929Z,5.06
2023-04-09T21:18:53.799Z,4.92
2023-04-09T21:21:56.558Z,4.89
2023-04-09T21:24:59.183Z,4.85
2023-04-09T21:28:01.629Z,4.88
2023-04-09T21:31:05.975Z,4.83
2023-04-09T21:34:08.359Z,4.98
2023-04-09T21:37:11.100Z,5.11
2023-04-09T21:40:13.740Z,5.06
2023-04-09T21:43:17.924Z,5.07
2023-04-09T21:46:21.584Z,5.13
2023-04-09T21:49:24.273Z,4.92
2023-04-09T21:52:26.753Z,4.97
2023-04-09T21:55:29.844Z,4.89
2023-04-09T21:58:32.116Z,4.72
2023-04-09T22:01:35.225Z,4.68
2023-04-09T22:04:38.381Z,4.87
2023-04-09T22:07:42.459Z,4.74
2023-04-09T22:10:45.340Z,4.77
2023-04-09T22:13:47.874Z,4.70
2023-04-09T22:16:50.438Z,4.68
2023-04-09T22:19:52.978Z,4.51
2023-04-09T22:22:55.728Z,4.50
2023-04-09T22:26:04.257Z,4.47
2023-04-09T22:29:07.295Z,4.49
2023-04-09T22:32:09.665Z,4.58
2023-04-09T22:35:18.044Z,4.65
2023-04-09T22:38:21.634Z,4.56
2023-04-09T22:41:24.409Z,4.53
2023-04-09T22:44:26.995Z,4.63
2023-04-09T22:47:29.678Z,4.78
2023-04-09T22:50:32.449Z,4.79
2023-04-09T22:53:35.295Z,4.77
2023-04-09T22:56:38.030Z,4.79
2023-04-09T22:59:41.178Z,4.59
2023-04-09T23:02:44.148Z,4.49
2023-04-09T23:05:47.919Z,4.38
2023-04-09T23:08:50.554Z,4.35
2023-04-09T23:11:53.269Z,4.33
2023-04-09T23:14:55.866Z,4.31
2023-04-09T23:17:58.512Z,4.28
2023-04-09T23:21:10.912Z,4.24
2023-04-09T23:24:14.184Z,4.10
2023-04-09T23:27:16.521Z,3.95
2023-04-09T23:30:20.419Z,3.89
2023-04-09T23:33:23.145Z,3.82
2023-04-09T23:36:26.149Z,3.69
2023-04-09T23:39:29.041Z,3.61
2023-04-09T23:42:33.803Z,3.60
2023-04-09T23:45:36.886Z,3.57
2023-04-09T23:48:39.922Z,3.62
2023-04-09T23:51:42.577Z,3.65
2023-04-09T23:54:51.098Z,3.64
2023-04-09T23:57:53.707Z,3.64
